La Palma, Panama
Current Conditions -  °F | °C
As of 3:00 PM on Wednesday 26 Nov 2014 (Local Time) from MPTO Reporting Station
Scattered Clouds Scattered Clouds  
Wind Chill: 86°   Ceiling: Unl
Heat Index: 93°   Visibility: 6mi
Dew Point: 73°   Wind: 0mph
Humidity: 66%   Direction: NA
Pressure: 29.8"   Gusts: NA
Location:  8.41°N, 78.15°W
Report Text: MPTO 262000Z 00000KT 9999 SCT018TCU SCT090 30/23 Q1009 NOSIG
Loading
Personal Weather Stations






























Interactive Weather Map New forecast layout! Learn more

10-Day Weather Forecast

Advertisements
Track Severe Weather on mobile